createdAt,value
2022-09-15T00:00:32.630Z,96705.59
2022-09-15T00:02:59.331Z,96689.88
2022-09-15T00:05:25.978Z,96685.00
2022-09-15T00:07:52.589Z,96663.13
2022-09-15T00:10:19.376Z,96659.53
2022-09-15T00:12:46.026Z,96660.06
2022-09-15T00:15:14.904Z,96649.78
2022-09-15T00:17:43.234Z,96647.72
2022-09-15T00:20:10.863Z,96641.47
2022-09-15T00:22:38.148Z,96659.66
2022-09-15T00:25:05.564Z,96653.63
2022-09-15T00:27:33.931Z,96646.09
2022-09-15T00:30:01.229Z,96639.53
2022-09-15T00:32:29.743Z,96637.34
2022-09-15T00:34:56.321Z,96636.31
2022-09-15T00:37:23.327Z,96640.06
2022-09-15T00:39:49.993Z,96637.03
2022-09-15T00:42:18.786Z,96637.94
2022-09-15T00:44:55.085Z,96631.69
2022-09-15T00:47:27.281Z,96617.38
2022-09-15T00:50:01.177Z,96606.34
2022-09-15T00:52:32.215Z,96603.78
2022-09-15T00:55:17.344Z,96615.59
2022-09-15T00:57:58.723Z,96635.75
2022-09-15T01:00:27.977Z,96628.66
2022-09-15T01:02:55.966Z,96623.78
2022-09-15T01:05:30.693Z,96619.47
2022-09-15T01:08:04.574Z,96636.31
2022-09-15T01:10:36.379Z,96642.97
2022-09-15T01:13:06.758Z,96652.81
2022-09-15T01:15:47.771Z,96663.22
2022-09-15T01:18:24.769Z,96652.84
2022-09-15T01:20:57.539Z,96656.41
2022-09-15T01:23:52.018Z,96662.94
2022-09-15T01:26:43.686Z,96661.13
2022-09-15T01:29:24.422Z,96668.94
2022-09-15T01:32:12.971Z,96678.03
2022-09-15T01:34:51.947Z,96686.94
2022-09-15T01:37:24.815Z,96678.59
2022-09-15T01:39:54.152Z,96685.59
2022-09-15T01:42:23.231Z,96681.28
2022-09-15T01:44:55.833Z,96669.06
2022-09-15T01:47:22.958Z,96678.75
2022-09-15T01:50:10.175Z,96681.22
2022-09-15T01:52:40.130Z,96672.19
2022-09-15T01:55:16.050Z,96660.19
2022-09-15T01:57:44.979Z,96664.53
2022-09-15T02:00:12.317Z,96662.09
2022-09-15T02:02:48.692Z,96676.19
2022-09-15T02:05:39.627Z,96666.63
2022-09-15T02:08:25.560Z,96659.94
2022-09-15T02:11:12.877Z,96661.47
2022-09-15T02:13:48.695Z,96657.22
2022-09-15T02:16:22.060Z,96650.91
2022-09-15T02:19:09.732Z,96652.16
2022-09-15T02:21:47.910Z,96658.75
2022-09-15T02:24:19.275Z,96658.75
2022-09-15T02:26:49.514Z,96658.94
2022-09-15T02:29:19.790Z,96661.03
2022-09-15T02:31:48.841Z,96678.16
2022-09-15T02:34:24.124Z,96675.56
2022-09-15T02:36:53.662Z,96666.41
2022-09-15T02:39:23.474Z,96675.84
2022-09-15T02:41:50.154Z,96670.97
2022-09-15T02:44:17.040Z,96666.81
2022-09-15T02:46:44.115Z,96681.88
2022-09-15T02:49:14.198Z,96655.41
2022-09-15T02:51:45.100Z,96650.72
2022-09-15T02:54:19.344Z,96670.00
2022-09-15T02:56:49.994Z,96668.81
2022-09-15T02:59:18.177Z,96670.41
2022-09-15T03:01:45.019Z,96671.63
2022-09-15T03:04:11.752Z,96677.34
2022-09-15T03:06:38.519Z,96673.88
2022-09-15T03:09:07.884Z,96670.66
2022-09-15T03:11:35.663Z,96661.81
2022-09-15T03:14:05.588Z,96662.69
2022-09-15T03:16:34.571Z,96662.75
2022-09-15T03:19:01.365Z,96663.56
2022-09-15T03:21:29.643Z,96653.41
2022-09-15T03:23:57.683Z,96634.63
2022-09-15T03:26:24.450Z,96644.69
2022-09-15T03:28:51.219Z,96641.28
2022-09-15T03:31:17.898Z,96649.88
2022-09-15T03:33:44.555Z,96650.94
2022-09-15T03:36:11.227Z,96642.53
2022-09-15T03:38:37.841Z,96637.19
2022-09-15T03:41:11.052Z,96633.91
2022-09-15T03:43:39.120Z,96627.78
2022-09-15T03:46:09.001Z,96626.13
2022-09-15T03:48:36.683Z,96620.44
2022-09-15T03:51:04.688Z,96627.81
2022-09-15T03:53:35.855Z,96629.22
2022-09-15T03:56:21.629Z,96629.22
2022-09-15T03:58:52.007Z,96623.72
2022-09-15T04:01:20.010Z,96625.94
2022-09-15T04:03:50.820Z,96630.22
2022-09-15T04:06:19.667Z,96624.66
2022-09-15T04:08:46.396Z,96629.78
2022-09-15T04:11:13.896Z,96632.63
2022-09-15T04:13:42.017Z,96634.66
2022-09-15T04:16:11.816Z,96622.81
2022-09-15T04:18:38.543Z,96624.03
2022-09-15T04:21:07.767Z,96619.47
2022-09-15T04:23:35.150Z,96614.59
2022-09-15T04:26:04.802Z,96621.19
2022-09-15T04:28:36.985Z,96622.81
2022-09-15T04:31:06.599Z,96616.06
2022-09-15T04:33:33.963Z,96608.34
2022-09-15T04:36:07.115Z,96626.91
2022-09-15T04:38:33.802Z,96642.50
2022-09-15T04:41:00.475Z,96636.38
2022-09-15T04:43:27.180Z,96650.28
2022-09-15T04:45:54.850Z,96641.69
2022-09-15T04:48:22.848Z,96644.56
2022-09-15T04:50:49.830Z,96651.53
2022-09-15T04:53:16.843Z,96662.53
2022-09-15T04:55:43.567Z,96666.19
2022-09-15T04:58:10.416Z,96668.22
2022-09-15T05:00:45.742Z,96676.19
2022-09-15T05:03:14.086Z,96677.84
2022-09-15T05:05:41.355Z,96679.06
2022-09-15T05:08:08.439Z,96673.13
2022-09-15T05:10:35.254Z,96673.72
2022-09-15T05:13:02.059Z,96687.03
2022-09-15T05:15:28.630Z,96693.53
2022-09-15T05:17:55.222Z,96695.19
2022-09-15T05:20:22.493Z,96693.34
2022-09-15T05:22:49.176Z,96695.56
2022-09-15T05:25:15.854Z,96695.78
2022-09-15T05:27:42.666Z,96675.06
2022-09-15T05:30:35.534Z,96673.63
2022-09-15T05:32:56.722Z,96685.84
2022-09-15T05:35:23.696Z,96704.06
2022-09-15T05:37:50.384Z,96707.16
2022-09-15T05:40:17.262Z,96718.00
2022-09-15T05:42:43.910Z,96706.09
2022-09-15T05:45:11.144Z,96717.72
2022-09-15T05:47:37.788Z,96720.56
2022-09-15T05:50:04.627Z,96726.53
2022-09-15T05:52:31.245Z,96731.84
2022-09-15T05:54:59.347Z,96724.91
2022-09-15T05:57:26.114Z,96740.00
2022-09-15T05:59:52.753Z,96732.63
2022-09-15T06:02:19.455Z,96739.59
2022-09-15T06:04:46.082Z,96746.72
2022-09-15T06:07:13.132Z,96737.72
2022-09-15T06:09:40.003Z,96737.09
2022-09-15T06:12:06.805Z,96732.13
2022-09-15T06:14:33.546Z,96722.72
2022-09-15T06:17:00.147Z,96721.91
2022-09-15T06:19:26.753Z,96721.06
2022-09-15T06:21:53.949Z,96727.47
2022-09-15T06:24:20.564Z,96727.03
2022-09-15T06:26:47.296Z,96736.22
2022-09-15T06:29:14.016Z,96732.22
2022-09-15T06:31:40.651Z,96737.22
2022-09-15T06:34:08.647Z,96748.41
2022-09-15T06:36:36.949Z,96744.69
2022-09-15T06:39:03.676Z,96732.22
2022-09-15T06:41:42.616Z,96732.72
2022-09-15T06:44:21.336Z,96733.75
2022-09-15T06:46:48.670Z,96743.50
2022-09-15T06:49:15.723Z,96734.84
2022-09-15T06:51:42.364Z,96727.13
2022-09-15T06:54:08.997Z,96724.13
2022-09-15T06:56:38.060Z,96719.25
2022-09-15T06:59:05.236Z,96723.34
2022-09-15T07:01:32.699Z,96714.19
2022-09-15T07:04:01.122Z,96707.31
2022-09-15T07:06:29.999Z,96706.66
2022-09-15T07:08:58.474Z,96703.38
2022-09-15T07:11:26.006Z,96703.72
2022-09-15T07:13:52.918Z,96703.13
2022-09-15T07:16:20.991Z,96701.88
2022-09-15T07:18:53.072Z,96704.69
2022-09-15T07:21:21.513Z,96704.00
2022-09-15T07:23:48.958Z,96688.53
2022-09-15T07:26:20.039Z,96682.09
2022-09-15T07:28:56.885Z,96682.81
2022-09-15T07:31:26.626Z,96692.38
2022-09-15T07:33:53.499Z,96699.34
2022-09-15T07:36:20.883Z,96696.69
2022-09-15T07:38:49.746Z,96692.84
2022-09-15T07:41:21.685Z,96686.66
2022-09-15T07:43:50.040Z,96690.78
2022-09-15T07:46:18.666Z,96695.03
2022-09-15T07:48:50.634Z,96696.38
2022-09-15T07:51:18.099Z,96691.25
2022-09-15T07:53:47.433Z,96689.88
2022-09-15T07:56:15.461Z,96681.25
2022-09-15T07:58:42.137Z,96681.91
2022-09-15T08:01:14.776Z,96677.25
2022-09-15T08:03:50.828Z,96673.72
2022-09-15T08:06:22.861Z,96666.56
2022-09-15T08:08:56.272Z,96663.44
2022-09-15T08:11:23.276Z,96665.34
2022-09-15T08:13:52.551Z,96669.31
2022-09-15T08:16:24.484Z,96677.53
2022-09-15T08:18:55.788Z,96681.19
2022-09-15T08:21:23.606Z,96678.56
2022-09-15T08:23:52.620Z,96666.97
2022-09-15T08:26:19.780Z,96654.84
2022-09-15T08:28:46.612Z,96658.63
2022-09-15T08:31:14.502Z,96658.16
2022-09-15T08:33:45.448Z,96660.31
2022-09-15T08:36:12.791Z,96646.00
2022-09-15T08:38:40.762Z,96662.03
2022-09-15T08:41:25.722Z,96653.75
2022-09-15T08:44:22.597Z,96654.56
2022-09-15T08:46:54.278Z,96656.16
2022-09-15T08:49:51.657Z,96642.59
2022-09-15T08:52:26.677Z,96637.13
2022-09-15T08:54:57.226Z,96632.47
2022-09-15T08:57:25.894Z,96625.41
2022-09-15T08:59:55.077Z,96623.84
2022-09-15T09:02:46.741Z,96624.78
2022-09-15T09:05:21.482Z,96622.44
2022-09-15T09:08:32.418Z,96611.41
2022-09-15T09:11:01.824Z,96597.56
2022-09-15T09:13:37.774Z,96594.94
2022-09-15T09:16:23.152Z,96589.59
2022-09-15T09:19:21.010Z,96584.75
2022-09-15T09:21:55.670Z,96577.03
2022-09-15T09:24:39.256Z,96578.72
2022-09-15T09:27:13.023Z,96575.00
2022-09-15T09:29:44.885Z,96569.66
2022-09-15T09:32:26.510Z,96581.25
2022-09-15T09:35:24.830Z,96584.38
2022-09-15T09:37:52.861Z,96587.88
2022-09-15T09:40:20.025Z,96593.09
2022-09-15T09:42:47.281Z,96589.94
2022-09-15T09:45:15.794Z,96583.19
2022-09-15T09:47:42.966Z,96584.97
2022-09-15T09:50:32.022Z,96599.13
2022-09-15T09:52:59.408Z,96591.53
2022-09-15T09:57:54.405Z,96594.47
2022-09-15T10:00:35.824Z,96603.66
2022-09-15T10:03:17.918Z,96599.78
2022-09-15T10:05:46.047Z,96617.34
2022-09-15T10:08:18.412Z,96624.41
2022-09-15T10:10:54.598Z,96610.25
2022-09-15T10:13:22.693Z,96603.13
2022-09-15T10:15:59.581Z,96606.09
2022-09-15T10:18:37.098Z,96608.22
2022-09-15T10:21:07.426Z,96611.94
2022-09-15T10:23:34.443Z,96613.88
2022-09-15T10:26:16.327Z,96609.16
2022-09-15T10:28:44.043Z,96605.84
2022-09-15T10:31:16.011Z,96601.41
2022-09-15T10:33:45.078Z,96594.69
2022-09-15T10:36:20.502Z,96586.13
2022-09-15T10:38:49.798Z,96583.66
2022-09-15T10:41:22.654Z,96591.53
2022-09-15T10:44:10.900Z,96598.00
2022-09-15T10:46:55.492Z,96600.19
2022-09-15T10:49:43.656Z,96583.31
2022-09-15T10:52:29.020Z,96591.78
2022-09-15T10:55:42.558Z,96586.47
2022-09-15T10:58:16.177Z,96586.78
2022-09-15T11:00:59.776Z,96581.53
2022-09-15T11:03:47.672Z,96607.91
2022-09-15T11:06:29.993Z,96627.19
2022-09-15T11:08:59.362Z,96637.06
2022-09-15T11:11:48.540Z,96662.09
2022-09-15T11:14:34.301Z,96676.50
2022-09-15T11:17:19.542Z,96679.81
2022-09-15T11:20:04.105Z,96687.06
2022-09-15T11:22:43.320Z,96710.44
2022-09-15T11:25:11.772Z,96723.16
2022-09-15T11:27:49.318Z,96711.94
2022-09-15T11:30:20.101Z,96702.16
2022-09-15T11:33:13.192Z,96683.16
2022-09-15T11:35:46.396Z,96650.53
2022-09-15T11:38:30.881Z,96652.97
2022-09-15T11:41:19.050Z,96647.69
2022-09-15T11:44:06.197Z,96640.72
2022-09-15T11:47:10.077Z,96642.25
2022-09-15T11:49:48.817Z,96624.72
2022-09-15T11:52:37.872Z,96595.72
2022-09-15T11:55:15.661Z,96583.97
2022-09-15T11:57:52.190Z,96562.38
2022-09-15T12:00:20.445Z,96555.44
2022-09-15T12:03:22.259Z,96564.47
2022-09-15T12:06:00.091Z,96575.75
2022-09-15T12:09:06.189Z,96574.09
2022-09-15T12:11:42.316Z,96576.72
2022-09-15T12:14:16.489Z,96575.47
2022-09-15T12:16:44.673Z,96588.06
2022-09-15T12:19:23.173Z,96574.06
2022-09-15T12:21:50.098Z,96569.91
2022-09-15T12:24:19.565Z,96576.38
2022-09-15T12:26:46.743Z,96572.88
2022-09-15T12:29:22.128Z,96578.84
2022-09-15T12:31:48.830Z,96579.63
2022-09-15T12:34:36.603Z,96585.09
2022-09-15T12:37:15.524Z,96582.41
2022-09-15T12:39:43.470Z,96582.47
2022-09-15T12:42:31.245Z,96578.75
2022-09-15T12:45:00.179Z,96577.69
2022-09-15T12:47:49.080Z,96577.34
2022-09-15T12:50:15.718Z,96576.53
2022-09-15T12:53:02.854Z,96560.25
2022-09-15T12:55:36.325Z,96561.72
2022-09-15T12:58:18.565Z,96552.81
2022-09-15T13:01:13.822Z,96547.25
2022-09-15T13:03:41.251Z,96538.34
2022-09-15T13:06:10.643Z,96547.31
2022-09-15T13:08:37.220Z,96551.63
2022-09-15T13:11:15.054Z,96557.16
2022-09-15T13:13:48.229Z,96578.53
2022-09-15T13:16:33.614Z,96576.19
2022-09-15T13:19:11.945Z,96581.84
2022-09-15T13:21:43.919Z,96586.41
2022-09-15T13:24:35.950Z,96589.91
2022-09-15T13:27:04.921Z,96589.19
2022-09-15T13:29:33.106Z,96601.63
2022-09-15T13:32:31.735Z,96592.91
2022-09-15T13:35:19.935Z,96580.66
2022-09-15T13:38:22.093Z,96588.91
2022-09-15T13:41:13.697Z,96597.16
2022-09-15T13:43:58.515Z,96603.56
2022-09-15T13:46:29.091Z,96599.88
2022-09-15T13:49:17.974Z,96589.81
2022-09-15T13:51:53.396Z,96580.25
2022-09-15T13:54:20.299Z,96593.78
2022-09-15T13:56:53.140Z,96588.56
2022-09-15T13:59:25.446Z,96578.16
2022-09-15T14:01:53.936Z,96578.03
2022-09-15T14:04:28.349Z,96566.63
2022-09-15T14:07:00.212Z,96571.06
2022-09-15T14:09:33.334Z,96581.03
2022-09-15T14:12:07.751Z,96577.69
2022-09-15T14:14:58.190Z,96560.09
2022-09-15T14:17:30.152Z,96573.91
2022-09-15T14:19:59.118Z,96578.03
2022-09-15T14:22:31.870Z,96582.22
2022-09-15T14:25:07.037Z,96583.47
2022-09-15T14:27:36.082Z,96590.66
2022-09-15T14:30:07.337Z,96593.75
2022-09-15T14:32:38.985Z,96590.69
2022-09-15T14:35:09.208Z,96598.31
2022-09-15T14:37:35.890Z,96589.31
2022-09-15T14:40:19.274Z,96587.56
2022-09-15T14:42:45.989Z,96594.66
2022-09-15T14:48:07.382Z,96592.19
2022-09-15T14:50:34.319Z,96594.38
2022-09-15T14:53:03.991Z,96584.06
2022-09-15T14:55:37.572Z,96581.28
2022-09-15T14:58:12.864Z,96584.97
2022-09-15T15:00:48.714Z,96589.06
2022-09-15T15:03:42.449Z,96576.31
2022-09-15T15:06:29.645Z,96567.94
2022-09-15T15:09:30.270Z,96559.19
2022-09-15T15:12:00.843Z,96566.03
2022-09-15T15:14:28.385Z,96571.78
2022-09-15T15:17:02.177Z,96568.97
2022-09-15T15:19:40.290Z,96590.50
2022-09-15T15:22:27.546Z,96608.47
2022-09-15T15:24:54.918Z,96610.78
2022-09-15T15:27:33.426Z,96613.66
2022-09-15T15:30:26.624Z,96609.38
2022-09-15T15:32:54.072Z,96603.44
2022-09-15T15:35:21.247Z,96610.53
2022-09-15T15:37:48.187Z,96615.69
2022-09-15T15:40:18.478Z,96618.19
2022-09-15T15:42:57.700Z,96613.16
2022-09-15T15:45:30.593Z,96604.97
2022-09-15T15:47:57.490Z,96602.75
2022-09-15T15:50:27.530Z,96604.22
2022-09-15T15:52:54.615Z,96617.16
2022-09-15T15:55:23.578Z,96614.28
2022-09-15T15:57:53.170Z,96598.31
2022-09-15T16:00:51.189Z,96572.38
2022-09-15T16:03:19.491Z,96581.25
2022-09-15T16:05:51.632Z,96588.22
2022-09-15T16:08:21.107Z,96592.31
2022-09-15T16:10:49.454Z,96606.06
2022-09-15T16:13:18.858Z,96599.75
2022-09-15T16:15:46.363Z,96616.16
2022-09-15T16:18:13.538Z,96600.34
2022-09-15T16:20:41.291Z,96612.84
2022-09-15T16:23:13.887Z,96612.88
2022-09-15T16:25:52.395Z,96613.13
2022-09-15T16:28:19.501Z,96598.63
2022-09-15T16:30:46.724Z,96602.72
2022-09-15T16:33:15.527Z,96608.66
2022-09-15T16:35:51.043Z,96617.72
2022-09-15T16:38:19.761Z,96604.63
2022-09-15T16:40:51.133Z,96609.34
2022-09-15T16:43:20.878Z,96606.50
2022-09-15T16:45:49.502Z,96603.06
2022-09-15T16:48:16.383Z,96604.06
2022-09-15T16:51:02.154Z,96605.72
2022-09-15T16:53:31.029Z,96605.91
2022-09-15T16:55:57.785Z,96604.84
2022-09-15T16:58:24.447Z,96599.97
2022-09-15T17:00:52.639Z,96591.38
2022-09-15T17:03:21.688Z,96579.13
2022-09-15T17:05:50.770Z,96586.69
2022-09-15T17:08:22.770Z,96571.75
2022-09-15T17:10:50.247Z,96574.63
2022-09-15T17:13:19.937Z,96568.97
2022-09-15T17:15:47.278Z,96567.72
2022-09-15T17:18:15.417Z,96561.56
2022-09-15T17:20:46.854Z,96557.47
2022-09-15T17:23:35.314Z,96543.97
2022-09-15T17:26:10.573Z,96537.06
2022-09-15T17:28:37.615Z,96523.97
2022-09-15T17:31:09.780Z,96529.28
2022-09-15T17:33:36.526Z,96541.97
2022-09-15T17:36:03.741Z,96551.34
2022-09-15T17:38:31.531Z,96552.59
2022-09-15T17:40:58.603Z,96555.69
2022-09-15T17:43:27.835Z,96552.41
2022-09-15T17:45:55.334Z,96563.06
2022-09-15T17:48:22.847Z,96577.56
2022-09-15T17:50:50.179Z,96578.38
2022-09-15T17:53:26.672Z,96581.22
2022-09-15T17:55:54.938Z,96585.53
2022-09-15T17:58:24.006Z,96576.97
2022-09-15T18:00:50.817Z,96580.84
2022-09-15T18:03:26.883Z,96595.56
2022-09-15T18:05:59.178Z,96598.22
2022-09-15T18:08:26.773Z,96588.59
2022-09-15T18:10:53.549Z,96591.25
2022-09-15T18:13:22.670Z,96566.56
2022-09-15T18:15:50.035Z,96553.03
2022-09-15T18:18:24.778Z,96567.56
2022-09-15T18:20:53.314Z,96573.88
2022-09-15T18:23:22.870Z,96582.88
2022-09-15T18:25:50.387Z,96593.09
2022-09-15T18:28:17.899Z,96580.03
2022-09-15T18:30:46.911Z,96569.63
2022-09-15T18:33:14.833Z,96564.09
2022-09-15T18:35:41.724Z,96566.19
2022-09-15T18:38:08.983Z,96565.34
2022-09-15T18:40:36.607Z,96560.66
2022-09-15T18:43:03.502Z,96560.88
2022-09-15T18:45:30.165Z,96562.94
2022-09-15T18:47:57.015Z,96574.59
2022-09-15T18:50:24.353Z,96577.03
2022-09-15T18:52:51.023Z,96576.81
2022-09-15T18:55:19.719Z,96573.97
2022-09-15T18:57:47.364Z,96565.38
2022-09-15T19:00:19.510Z,96567.03
2022-09-15T19:02:46.549Z,96571.75
2022-09-15T19:05:15.611Z,96575.59
2022-09-15T19:07:44.853Z,96580.53
2022-09-15T19:10:14.130Z,96581.53
2022-09-15T19:12:41.019Z,96598.09
2022-09-15T19:15:11.044Z,96598.09
2022-09-15T19:17:39.416Z,96604.22
2022-09-15T19:20:07.693Z,96626.50
2022-09-15T19:22:35.339Z,96633.06
2022-09-15T19:25:02.227Z,96636.72
2022-09-15T19:27:28.970Z,96639.41
2022-09-15T19:29:55.628Z,96639.00
2022-09-15T19:32:22.900Z,96637.78
2022-09-15T19:34:49.907Z,96639.00
2022-09-15T19:37:19.061Z,96636.56
2022-09-15T19:39:47.052Z,96637.56
2022-09-15T19:44:42.437Z,96624.91
2022-09-15T19:47:09.481Z,96625.53
2022-09-15T19:49:36.155Z,96628.00
2022-09-15T19:52:02.886Z,96637.81
2022-09-15T19:54:30.557Z,96650.47
2022-09-15T19:56:57.320Z,96659.06
2022-09-15T19:59:28.730Z,96667.00
2022-09-15T20:01:57.663Z,96668.22
2022-09-15T20:04:24.366Z,96667.59
2022-09-15T20:06:51.039Z,96667.19
2022-09-15T20:09:17.735Z,96670.88
2022-09-15T20:11:44.993Z,96671.69
2022-09-15T20:14:11.792Z,96664.75
2022-09-15T20:16:38.474Z,96673.34
2022-09-15T20:19:05.703Z,96676.63
2022-09-15T20:21:51.386Z,96685.41
2022-09-15T20:24:19.587Z,96676.19
2022-09-15T20:26:46.429Z,96693.75
2022-09-15T20:29:13.285Z,96684.97
2022-09-15T20:31:40.100Z,96687.19
2022-09-15T20:34:07.231Z,96682.94
2022-09-15T20:36:36.728Z,96684.34
2022-09-15T20:39:05.838Z,96684.34
2022-09-15T20:41:32.575Z,96685.56
2022-09-15T20:43:59.699Z,96679.84
2022-09-15T20:46:26.658Z,96676.16
2022-09-15T20:48:53.458Z,96676.16
2022-09-15T20:51:22.859Z,96678.22
2022-09-15T20:53:51.562Z,96680.84
2022-09-15T20:56:21.169Z,96687.00
2022-09-15T20:58:47.845Z,96685.97
2022-09-15T21:01:20.245Z,96684.72
2022-09-15T21:03:47.870Z,96698.44
2022-09-15T21:06:19.719Z,96694.97
2022-09-15T21:08:47.642Z,96700.50
2022-09-15T21:11:16.263Z,96696.22
2022-09-15T21:13:43.593Z,96703.19
2022-09-15T21:16:16.051Z,96704.81
2022-09-15T21:18:44.729Z,96703.78
2022-09-15T21:21:14.646Z,96696.44
2022-09-15T21:23:46.885Z,96699.09
2022-09-15T21:26:16.263Z,96697.22
2022-09-15T21:28:45.982Z,96707.66
2022-09-15T21:31:18.124Z,96717.44
2022-09-15T21:33:46.532Z,96727.88
2022-09-15T21:36:20.376Z,96730.09
2022-09-15T21:38:47.425Z,96730.91
2022-09-15T21:41:16.911Z,96732.13
2022-09-15T21:43:46.509Z,96744.38
2022-09-15T21:46:18.354Z,96757.03
2022-09-15T21:48:49.269Z,96759.91
2022-09-15T21:51:24.307Z,96757.06
2022-09-15T21:53:53.767Z,96759.50
2022-09-15T21:56:24.259Z,96769.34
2022-09-15T21:58:50.933Z,96765.47
2022-09-15T22:01:19.789Z,96774.44
2022-09-15T22:03:52.023Z,96768.94
2022-09-15T22:06:20.959Z,96775.31
2022-09-15T22:08:48.293Z,96782.84
2022-09-15T22:11:15.076Z,96781.63
2022-09-15T22:13:44.606Z,96793.47
2022-09-15T22:16:14.497Z,96783.25
2022-09-15T22:18:41.725Z,96782.44
2022-09-15T22:21:15.999Z,96790.00
2022-09-15T22:23:44.231Z,96791.44
2022-09-15T22:26:13.462Z,96788.97
2022-09-15T22:28:40.131Z,96795.94
2022-09-15T22:31:08.905Z,96795.34
2022-09-15T22:33:36.119Z,96793.06
2022-09-15T22:36:03.289Z,96800.84
2022-09-15T22:38:30.632Z,96796.34
2022-09-15T22:41:04.518Z,96805.13
2022-09-15T22:43:31.169Z,96796.94
2022-09-15T22:45:57.821Z,96806.94
2022-09-15T22:48:24.502Z,96798.97
2022-09-15T22:50:51.095Z,96797.97
2022-09-15T22:53:17.810Z,96815.13
2022-09-15T22:55:44.641Z,96814.09
2022-09-15T22:58:11.474Z,96813.91
2022-09-15T23:00:38.793Z,96821.88
2022-09-15T23:03:06.629Z,96821.25
2022-09-15T23:05:34.516Z,96815.53
2022-09-15T23:08:01.391Z,96801.41
2022-09-15T23:10:28.448Z,96811.44
2022-09-15T23:12:55.117Z,96799.19
2022-09-15T23:15:21.712Z,96798.78
2022-09-15T23:17:48.356Z,96797.97
2022-09-15T23:20:15.227Z,96804.09
2022-09-15T23:22:41.904Z,96805.13
2022-09-15T23:25:08.937Z,96816.94
2022-09-15T23:27:37.819Z,96815.75
2022-09-15T23:30:05.172Z,96827.19
2022-09-15T23:32:31.853Z,96814.53
2022-09-15T23:34:58.442Z,96815.53
2022-09-15T23:37:25.057Z,96813.47
2022-09-15T23:39:52.347Z,96817.38
2022-09-15T23:42:19.256Z,96825.53
2022-09-15T23:44:46.214Z,96829.03
2022-09-15T23:47:12.817Z,96831.69
2022-09-15T23:49:39.533Z,96832.06
2022-09-15T23:52:06.171Z,96841.88
2022-09-15T23:54:32.827Z,96837.81
2022-09-15T23:56:59.510Z,96847.00
2022-09-15T23:59:26.220Z,96845.78
